Time;durP1;ratioP1;P1;durP2;ratioP2;P2;SDS_P1;SDS_P2;PMS_P1;PMS_P2;Temp;Humidity;BMP_temperature;BMP_pressure;BME280_temperature;BME280_humidity;BME280_pressure;Samples;Min_cycle;Max_cycle;Signal;HPM_P1;HPM_P2
2022/11/03 00:02:05;;;;;;;11.93;2.53;;;;;;;12.72;64.65;101362.09;4772950;30;20513;-89
2022/11/03 00:04:30;;;;;;;10.00;2.10;;;;;;;12.70;64.88;101361.31;4800085;29;20034;-90
2022/11/03 00:06:55;;;;;;;10.98;2.55;;;;;;;12.69;64.64;101349.00;4778775;29;20033;-89
2022/11/03 00:09:22;;;;;;;8.98;2.10;;;;;;;12.77;64.83;101359.28;4785726;29;20041;-90
2022/11/03 00:11:49;;;;;;;9.30;2.10;;;;;;;12.76;65.00;101353.09;4782914;30;20512;-90
2022/11/03 00:14:15;;;;;;;13.30;2.42;;;;;;;12.88;64.30;101343.78;4800156;29;20031;-89
2022/11/03 00:16:40;;;;;;;15.93;1.90;;;;;;;12.84;63.85;101328.91;4778666;29;20023;-90
2022/11/03 00:19:08;;;;;;;8.60;2.50;;;;;;;12.86;63.50;101342.97;4777075;29;20043;-90
2022/11/03 00:21:34;;;;;;;9.75;2.00;;;;;;;13.00;63.43;101355.66;4785824;29;20059;-90
2022/11/03 00:24:01;;;;;;;7.97;2.28;;;;;;;12.96;64.18;101346.09;4777582;29;20039;-90
2022/11/03 00:26:28;;;;;;;9.45;2.17;;;;;;;12.89;64.14;101350.81;4799395;29;20087;-89
2022/11/03 00:28:59;;;;;;;9.52;2.70;;;;;;;12.83;64.15;101331.66;4793562;29;20036;-90
2022/11/03 00:31:29;;;;;;;6.38;1.73;;;;;;;12.91;63.78;101342.78;4792148;29;20027;-89
2022/11/03 00:33:55;;;;;;;10.80;2.63;;;;;;;12.76;64.19;101331.03;4801521;29;20034;-89
2022/11/03 00:36:23;;;;;;;10.20;2.65;;;;;;;12.91;63.64;101332.16;4806107;29;20057;-90
2022/11/03 00:38:49;;;;;;;9.20;2.05;;;;;;;12.82;64.00;101319.28;4779392;29;20088;-89
2022/11/03 00:41:15;;;;;;;11.55;2.50;;;;;;;12.84;64.00;101318.31;4787739;29;20034;-89
2022/11/03 00:43:40;;;;;;;9.85;3.05;;;;;;;12.92;63.61;101323.31;4771398;30;20032;-90
2022/11/03 00:46:07;;;;;;;10.68;2.30;;;;;;;12.82;63.83;101298.91;4779986;29;20555;-89
2022/11/03 00:48:34;;;;;;;9.55;2.05;;;;;;;12.85;63.85;101304.09;4773658;29;20404;-90
2022/11/03 00:51:09;;;;;;;9.05;2.20;;;;;;;12.83;64.07;101287.41;4788495;29;20061;-90
2022/11/03 00:53:38;;;;;;;10.30;2.83;;;;;;;12.89;63.89;101312.81;4799826;29;20032;-90
2022/11/03 00:56:05;;;;;;;13.40;2.85;;;;;;;12.83;64.62;101305.97;4796631;29;20019;-89
2022/11/03 00:58:31;;;;;;;9.02;2.42;;;;;;;12.79;64.59;101295.53;4775331;29;20391;-89
2022/11/03 01:01:06;;;;;;;6.75;1.98;;;;;;;12.81;64.28;101283.06;4788516;29;20096;-90
2022/11/03 01:03:33;;;;;;;13.10;2.15;;;;;;;12.88;64.60;101295.16;4798243;29;20035;-89
2022/11/03 01:08:43;;;;;;;10.40;2.15;;;;;;;12.82;64.55;101274.16;4785320;29;20037;-90
2022/11/03 01:13:57;;;;;;;10.57;2.33;;;;;;;12.86;64.55;101275.78;4794071;29;20104;-90
2022/11/03 01:16:23;;;;;;;13.48;3.08;;;;;;;12.80;64.35;101268.09;4782923;29;20027;-89
2022/11/03 01:18:49;;;;;;;10.98;1.88;;;;;;;12.88;64.28;101265.97;4766017;29;20435;-89
2022/11/03 01:21:14;;;;;;;13.13;2.17;;;;;;;12.95;64.09;101260.31;4796297;29;20058;-89
2022/11/03 01:23:40;;;;;;;11.18;2.38;;;;;;;13.01;63.64;101253.91;4804942;29;20038;-90
2022/11/03 01:26:07;;;;;;;9.90;2.33;;;;;;;12.99;63.65;101251.28;4787825;29;20481;-90
2022/11/03 01:28:37;;;;;;;11.40;2.42;;;;;;;12.98;63.59;101238.09;4780417;29;20027;-90
2022/11/03 01:31:12;;;;;;;8.40;1.73;;;;;;;13.02;63.71;101245.00;4803506;29;20549;-90
2022/11/03 01:33:38;;;;;;;10.10;2.30;;;;;;;12.99;63.70;101235.38;4776363;29;20035;-90
2022/11/03 01:36:03;;;;;;;11.65;2.55;;;;;;;13.06;63.60;101240.44;4792907;29;20092;-89
2022/11/03 01:38:36;;;;;;;7.43;1.88;;;;;;;12.99;63.79;101230.06;4772841;29;20047;-90
2022/11/03 01:41:02;;;;;;;12.75;2.45;;;;;;;13.09;63.51;101227.84;4777168;29;20027;-89
2022/11/03 01:43:30;;;;;;;9.23;2.28;;;;;;;13.04;63.71;101232.50;4776190;29;20035;-90
2022/11/03 01:46:11;;;;;;;13.88;3.42;;;;;;;13.15;63.63;101240.88;4788230;29;20411;-89
2022/11/03 01:48:43;;;;;;;13.95;2.40;;;;;;;13.06;63.97;101208.56;4778277;29;20131;-90
2022/11/03 01:51:10;;;;;;;12.32;2.83;;;;;;;13.02;63.82;101216.66;4801835;29;20058;-89
2022/11/03 01:53:40;;;;;;;10.32;2.08;;;;;;;13.06;63.92;101217.41;4804087;29;20034;-89
2022/11/03 01:56:06;;;;;;;10.02;3.00;;;;;;;13.14;64.12;101211.72;4778118;29;20484;-91
2022/11/03 01:58:36;;;;;;;10.90;2.70;;;;;;;13.18;64.46;101218.63;4785896;29;20031;-89
2022/11/03 02:01:02;;;;;;;9.40;2.42;;;;;;;13.17;64.45;101207.16;4763626;29;20128;-90
2022/11/03 02:03:36;;;;;;;10.93;2.38;;;;;;;13.19;64.26;101201.75;4774879;29;20125;-89
2022/11/03 02:06:02;;;;;;;6.63;1.92;;;;;;;13.20;63.59;101193.75;4804314;29;20038;-88
2022/11/03 02:08:35;;;;;;;9.93;2.05;;;;;;;13.26;63.81;101209.41;4775465;29;20468;-89
2022/11/03 02:12:05;;;;;;;8.65;2.17;;;;;;;13.21;64.07;101198.13;4782247;29;20063;-89
2022/11/03 02:13:45;;;;;;;11.80;2.45;;;;;;;13.27;63.50;101203.16;4795622;29;20423;-89
2022/11/03 02:16:11;;;;;;;7.97;2.42;;;;;;;13.28;63.60;101196.06;4801391;29;20027;-89
2022/11/03 02:18:37;;;;;;;11.13;2.38;;;;;;;13.23;63.72;101193.63;4778034;29;20117;-89
2022/11/03 02:21:21;;;;;;;6.70;1.77;;;;;;;13.31;63.54;101182.66;4799354;29;20074;-88
2022/11/03 02:24:10;;;;;;;8.95;1.98;;;;;;;13.39;63.03;101188.47;4787882;29;20034;-89
2022/11/03 02:26:35;;;;;;;8.80;1.88;;;;;;;13.15;64.09;101161.25;4774558;30;20066;-89
2022/11/03 02:29:01;;;;;;;14.48;2.35;;;;;;;13.26;63.97;101184.66;4798079;29;20070;-89
2022/11/03 02:31:48;;;;;;;9.80;2.20;;;;;;;13.18;64.18;101166.38;4797190;29;20043;-88
2022/11/03 02:34:20;;;;;;;10.40;2.65;;;;;;;13.26;63.78;101182.88;4804184;29;20071;-89
2022/11/03 02:36:50;;;;;;;10.23;2.40;;;;;;;13.14;64.09;101159.50;4776899;30;20039;-89
2022/11/03 02:39:24;;;;;;;9.95;2.10;;;;;;;13.17;64.05;101163.81;4764362;30;20047;-88
2022/11/03 02:41:53;;;;;;;11.18;2.17;;;;;;;13.15;64.40;101150.63;4785481;29;20038;-89
2022/11/03 02:44:19;;;;;;;12.23;2.00;;;;;;;13.27;63.92;101160.69;4793320;29;20495;-89
2022/11/03 02:46:50;;;;;;;12.35;2.13;;;;;;;13.13;64.05;101130.38;4791374;29;20112;-89
2022/11/03 02:49:16;;;;;;;11.60;2.75;;;;;;;13.20;64.63;101143.31;4774313;29;20096;-88
2022/11/03 02:51:41;;;;;;;7.07;1.90;;;;;;;13.08;64.79;101111.13;4797461;29;20454;-90
2022/11/03 02:54:37;;;;;;;11.43;2.17;;;;;;;13.30;64.53;101149.06;4785420;29;20665;-89
2022/11/03 02:57:08;;;;;;;8.15;1.98;;;;;;;13.12;64.55;101115.38;4789301;29;20126;-89
2022/11/03 02:59:42;;;;;;;9.75;2.22;;;;;;;13.25;64.96;101136.00;4796178;29;20035;-92
2022/11/03 03:02:10;;;;;;;11.88;2.45;;;;;;;13.16;64.54;101115.16;4805240;29;20043;-89
2022/11/03 03:04:41;;;;;;;10.13;1.77;;;;;;;13.28;64.75;101127.88;4779016;29;20031;-89
2022/11/03 03:07:14;;;;;;;6.13;2.25;;;;;;;13.20;64.49;101111.44;4799128;29;20043;-89
2022/11/03 03:10:02;;;;;;;10.32;2.33;;;;;;;13.24;64.81;101118.38;4800467;29;20110;-88
2022/11/03 03:12:31;;;;;;;5.78;2.03;;;;;;;13.20;65.06;101100.81;4772618;30;20071;-89
2022/11/03 03:14:59;;;;;;;8.55;2.00;;;;;;;13.19;64.53;101093.75;4795438;29;20038;-89
2022/11/03 03:17:43;;;;;;;9.63;2.05;;;;;;;13.32;64.66;101110.03;4790902;29;20059;-89
2022/11/03 03:20:18;;;;;;;11.27;2.40;;;;;;;13.17;65.27;101085.03;4772257;29;20507;-89
2022/11/03 03:22:53;;;;;;;12.85;3.08;;;;;;;13.11;65.53;101097.75;4774810;30;20023;-89
2022/11/03 03:25:39;;;;;;;7.82;2.33;;;;;;;13.21;65.45;101091.06;4799854;29;20033;-89
2022/11/03 03:28:09;;;;;;;11.43;2.30;;;;;;;13.16;65.78;101085.97;4785404;29;20027;-89
2022/11/03 03:30:36;;;;;;;9.45;2.08;;;;;;;13.25;65.47;101077.59;4781239;29;20027;-89
2022/11/03 03:33:04;;;;;;;13.52;1.88;;;;;;;13.23;65.32;101075.94;4772827;30;20110;-89
2022/11/03 03:35:32;;;;;;;9.52;2.25;;;;;;;13.34;65.11;101076.31;4803214;29;20053;-90
2022/11/03 03:38:03;;;;;;;10.57;2.13;;;;;;;13.35;65.14;101070.06;4773301;29;20035;-89
2022/11/03 03:40:39;;;;;;;7.10;2.00;;;;;;;13.40;65.28;101062.72;4798899;29;20403;-89
2022/11/03 03:43:07;;;;;;;6.60;2.03;;;;;;;13.23;65.66;101075.94;4780270;30;20510;-89
2022/11/03 03:45:34;;;;;;;12.75;2.83;;;;;;;13.17;65.63;101061.13;4784445;30;20031;-89
2022/11/03 03:47:59;;;;;;;10.52;2.58;;;;;;;13.17;66.04;101066.44;4788329;29;20110;-89
2022/11/03 03:50:28;;;;;;;9.48;2.15;;;;;;;13.16;65.77;101051.44;4804285;29;20105;-90
2022/11/03 03:52:56;;;;;;;11.43;2.42;;;;;;;13.20;66.04;101061.00;4779381;30;20560;-89
2022/11/03 03:55:31;;;;;;;8.20;1.73;;;;;;;13.19;66.23;101043.31;4793850;29;20463;-91
2022/11/03 03:57:56;;;;;;;8.15;2.03;;;;;;;13.09;66.28;101026.13;4762993;30;20039;-89
2022/11/03 04:00:21;;;;;;;7.90;2.15;;;;;;;13.12;66.12;101022.47;4777507;29;20042;-88
2022/11/03 04:02:47;;;;;;;11.05;2.53;;;;;;;13.18;66.32;101032.78;4806328;29;20491;-89
2022/11/03 04:05:12;;;;;;;9.05;2.88;;;;;;;13.46;65.32;101029.69;4771903;30;20114;-89
2022/11/03 04:07:46;;;;;;;8.40;2.00;;;;;;;13.30;66.06;101032.25;4787906;29;20028;-90
2022/11/03 04:10:12;;;;;;;9.65;1.80;;;;;;;13.33;65.67;101025.91;4785974;29;20110;-89
2022/11/03 04:23:37;;;;;;;8.07;1.95;;;;;;;13.18;66.46;101011.53;4778365;29;20043;-88
2022/11/03 04:26:10;;;;;;;7.97;2.60;;;;;;;13.25;66.96;101031.59;4757328;30;20028;-89
2022/11/03 04:28:35;;;;;;;6.05;1.85;;;;;;;13.18;67.02;101030.13;4761527;30;20024;-89
2022/11/03 04:31:01;;;;;;;9.05;2.40;;;;;;;13.23;67.31;101026.34;4785283;29;20039;-89
2022/11/03 04:33:28;;;;;;;7.50;2.30;;;;;;;13.24;66.84;101017.47;4777968;30;20428;-89
2022/11/03 04:35:57;;;;;;;9.35;1.92;;;;;;;13.22;66.83;100997.22;4781744;29;20086;-89
2022/11/03 04:38:24;;;;;;;8.52;2.50;;;;;;;13.31;67.43;101031.28;4742433;30;20505;-89
2022/11/03 04:40:55;;;;;;;11.18;1.88;;;;;;;13.25;67.38;101013.88;4764674;30;20542;-89
2022/11/03 04:43:28;;;;;;;11.13;2.92;;;;;;;13.32;66.96;101018.88;4765629;30;20035;-89
2022/11/03 04:45:54;;;;;;;11.93;2.40;;;;;;;13.25;67.21;101003.25;4771505;30;20275;-90
2022/11/03 04:48:23;;;;;;;4.88;2.33;;;;;;;13.22;67.15;100983.94;4774798;30;20166;-88
2022/11/03 04:50:52;;;;;;;10.13;2.38;;;;;;;13.32;67.38;101009.13;4780800;29;20518;-89
2022/11/03 04:53:19;;;;;;;6.38;1.83;;;;;;;13.22;67.40;100987.47;4757993;30;20488;-89
2022/11/03 04:55:46;;;;;;;8.93;2.42;;;;;;;13.24;67.65;100985.63;4777227;30;20598;-89
2022/11/03 04:58:20;;;;;;;9.80;2.63;;;;;;;13.25;67.71;100995.28;4757236;30;20031;-89
2022/11/03 05:00:50;;;;;;;7.18;2.10;;;;;;;13.26;67.64;100989.03;4763878;30;20035;-89
2022/11/03 05:03:24;;;;;;;7.13;2.00;;;;;;;13.30;67.81;100992.41;4768017;30;20028;-88
2022/11/03 05:05:50;;;;;;;11.50;2.35;;;;;;;13.19;68.76;100982.25;4779521;30;20043;-90
2022/11/03 05:08:18;;;;;;;9.15;2.60;;;;;;;13.23;68.64;100983.00;4754448;30;20035;-88
2022/11/03 05:10:44;;;;;;;9.82;2.60;;;;;;;13.27;68.83;100977.47;4762979;30;20225;-89
2022/11/03 05:13:29;;;;;;;9.80;2.20;;;;;;;13.28;68.21;100978.34;4782653;29;20036;-91
2022/11/03 05:16:05;;;;;;;8.05;1.90;;;;;;;13.25;68.43;100979.34;4780607;29;20497;-88
2022/11/03 05:18:34;;;;;;;7.28;2.38;;;;;;;13.12;68.72;100962.28;4760423;30;20047;-90
2022/11/03 05:21:06;;;;;;;8.35;2.38;;;;;;;13.21;68.70;100971.59;4779854;29;20408;-89
2022/11/03 05:23:39;;;;;;;7.03;2.33;;;;;;;13.12;68.90;100951.66;4779679;30;20031;-89
2022/11/03 05:26:10;;;;;;;5.53;1.85;;;;;;;13.07;69.08;100951.03;4782628;29;20611;-91
2022/11/03 05:28:41;;;;;;;12.13;2.50;;;;;;;13.02;69.39;100939.78;4796232;29;20412;-89
2022/11/03 05:31:21;;;;;;;6.38;2.60;;;;;;;13.22;69.39;100955.59;4793484;29;20649;-89
2022/11/03 05:33:48;;;;;;;12.95;2.75;;;;;;;13.11;69.94;100936.66;4792625;29;20069;-89
2022/11/03 05:36:18;;;;;;;11.90;1.95;;;;;;;13.21;69.75;100951.19;4804925;29;20031;-88
2022/11/03 05:38:43;;;;;;;8.45;2.17;;;;;;;13.19;69.76;100925.66;4780274;29;20035;-89
2022/11/03 05:41:34;;;;;;;7.40;2.30;;;;;;;13.31;69.61;100933.06;4776055;29;20058;-89
2022/11/03 05:44:12;;;;;;;9.07;2.30;;;;;;;13.09;70.04;100916.44;4772155;29;20459;-90
2022/11/03 05:46:37;;;;;;;11.00;2.20;;;;;;;13.09;70.23;100911.13;4776217;30;20039;-89
2022/11/03 05:49:05;;;;;;;7.70;2.42;;;;;;;13.16;70.61;100913.41;4769729;30;20050;-89
2022/11/03 05:51:36;;;;;;;11.73;2.80;;;;;;;13.09;70.59;100909.31;4799988;29;20046;-88
2022/11/03 05:54:05;;;;;;;6.30;1.85;;;;;;;13.06;70.95;100908.63;4777264;29;20506;-89
2022/11/03 05:56:32;;;;;;;8.00;2.03;;;;;;;13.07;70.42;100902.38;4803242;29;20058;-89
2022/11/03 05:58:58;;;;;;;12.45;2.45;;;;;;;13.03;71.25;100907.84;4793651;29;20035;-89
2022/11/03 06:01:38;;;;;;;7.38;2.00;;;;;;;13.16;70.28;100894.81;4799721;29;20499;-89
2022/11/03 06:04:17;;;;;;;9.48;2.60;;;;;;;13.25;70.49;100915.63;4794736;29;20028;-90
2022/11/03 06:06:48;;;;;;;7.05;2.05;;;;;;;13.20;70.75;100909.66;4770185;30;20400;-89
2022/11/03 06:09:23;;;;;;;9.83;2.47;;;;;;;13.21;70.30;100884.84;4781311;29;20034;-90
2022/11/03 06:11:52;;;;;;;6.07;1.95;;;;;;;13.05;71.03;100889.19;4786869;29;20291;-89
2022/11/03 06:14:23;;;;;;;11.63;2.40;;;;;;;13.15;71.46;100892.22;4791749;29;20050;-89
2022/11/03 06:16:56;;;;;;;13.10;1.88;;;;;;;13.09;70.67;100872.16;4780222;29;20035;-89
2022/11/03 06:19:27;;;;;;;14.23;2.08;;;;;;;13.15;71.20;100873.66;4781005;29;20496;-89
2022/11/03 06:21:56;;;;;;;9.05;2.15;;;;;;;13.17;71.09;100890.38;4778818;29;20638;-89
2022/11/03 06:24:27;;;;;;;11.57;2.33;;;;;;;13.16;71.31;100881.56;4800082;29;20031;-89
2022/11/03 06:26:52;;;;;;;9.40;2.42;;;;;;;13.16;71.04;100883.34;4796340;29;20027;-88
2022/11/03 06:29:20;;;;;;;10.18;1.83;;;;;;;13.26;70.34;100884.63;4775106;29;20039;-88
2022/11/03 06:31:48;;;;;;;9.48;2.00;;;;;;;13.38;70.35;100886.69;4777001;29;20047;-89
2022/11/03 06:34:46;;;;;;;8.95;2.40;;;;;;;13.27;70.05;100873.06;4774170;29;20031;-89
2022/11/03 06:37:34;;;;;;;11.75;2.20;;;;;;;13.21;70.57;100884.84;4761150;30;20523;-89
2022/11/03 06:40:23;;;;;;;7.80;2.15;;;;;;;13.08;71.41;100866.94;4776913;29;20051;-89
2022/11/03 06:42:51;;;;;;;8.75;2.47;;;;;;;13.13;70.82;100880.84;4767976;29;20113;-88
2022/11/03 06:45:22;;;;;;;6.88;1.92;;;;;;;13.11;70.81;100872.97;4801449;29;20038;-89
2022/11/03 06:47:49;;;;;;;9.13;2.17;;;;;;;13.15;70.58;100860.38;4761596;29;20039;-89
2022/11/03 06:50:30;;;;;;;10.77;1.90;;;;;;;13.18;70.33;100862.88;4783144;29;20031;-89
2022/11/03 06:52:56;;;;;;;9.90;2.28;;;;;;;13.25;70.71;100872.31;4777259;29;20046;-89
2022/11/03 06:55:25;;;;;;;6.60;2.17;;;;;;;13.29;70.66;100876.53;4773945;29;20023;-90
2022/11/03 06:57:58;;;;;;;10.63;2.00;;;;;;;13.28;70.29;100865.00;4776286;30;20043;-88
2022/11/03 07:00:29;;;;;;;10.50;2.28;;;;;;;13.20;70.27;100855.72;4797240;29;20033;-89
2022/11/03 07:03:10;;;;;;;7.93;2.22;;;;;;;13.28;70.94;100874.78;4769501;29;20485;-89
2022/11/03 07:05:36;;;;;;;8.95;2.42;;;;;;;13.25;70.33;100859.03;4787135;29;20369;-88
2022/11/03 07:08:13;;;;;;;8.75;2.35;;;;;;;13.20;70.67;100853.06;4775156;29;20027;-89
2022/11/03 07:10:38;;;;;;;8.27;2.30;;;;;;;13.21;70.46;100841.50;4778408;30;20122;-88
2022/11/03 07:13:12;;;;;;;9.18;2.60;;;;;;;13.23;69.96;100848.47;4781697;29;20544;-89
2022/11/03 07:15:38;;;;;;;8.63;1.77;;;;;;;13.27;70.34;100852.69;4769391;30;20549;-88
2022/11/03 07:18:16;;;;;;;6.05;2.30;;;;;;;13.22;70.38;100825.50;4797288;29;20118;-88
2022/11/03 07:20:41;;;;;;;12.15;2.65;;;;;;;13.26;70.77;100828.88;4769885;30;20577;-89
2022/11/03 07:23:14;;;;;;;9.80;2.13;;;;;;;13.40;69.94;100850.25;4767761;30;20111;-89
2022/11/03 07:25:40;;;;;;;5.43;2.35;;;;;;;13.30;70.13;100830.44;4779492;29;20035;-89
2022/11/03 07:28:05;;;;;;;9.68;2.10;;;;;;;13.35;70.37;100840.81;4760385;30;20020;-89
2022/11/03 07:30:35;;;;;;;12.95;3.45;;;;;;;13.27;70.45;100828.78;4777555;30;20174;-89
2022/11/03 07:33:11;;;;;;;14.30;2.63;;;;;;;13.27;70.21;100815.50;4778962;29;20047;-89
2022/11/03 07:35:40;;;;;;;9.13;2.28;;;;;;;13.38;69.76;100830.03;4779319;30;20115;-89
2022/11/03 07:38:12;;;;;;;5.72;1.75;;;;;;;13.46;69.92;100827.84;4763302;30;20081;-89
2022/11/03 07:40:37;;;;;;;9.80;2.20;;;;;;;13.40;69.98;100820.19;4767817;30;20333;-89
2022/11/03 07:43:33;;;;;;;9.73;2.10;;;;;;;13.50;69.88;100824.09;4776117;30;20503;-89
2022/11/03 07:46:02;;;;;;;10.02;2.45;;;;;;;13.47;69.90;100833.06;4761642;29;20079;-88
2022/11/03 07:48:38;;;;;;;9.18;2.28;;;;;;;13.42;69.07;100807.69;4773542;29;20039;-88
2022/11/03 07:51:28;;;;;;;7.88;1.90;;;;;;;13.64;68.63;100824.22;4777458;30;20031;-88
2022/11/03 07:54:18;;;;;;;9.75;2.78;;;;;;;13.52;68.83;100815.13;4757095;29;20516;-87
2022/11/03 07:56:49;;;;;;;12.23;2.28;;;;;;;13.60;68.64;100819.16;4773572;29;20028;-89
2022/11/03 07:59:21;;;;;;;9.55;2.30;;;;;;;13.60;68.16;100808.50;4779741;30;20503;-89
2022/11/03 08:01:51;;;;;;;8.47;2.20;;;;;;;13.72;68.54;100824.66;4784791;30;20042;-89
2022/11/03 08:04:23;;;;;;;8.65;2.47;;;;;;;13.74;68.22;100833.41;4788542;29;20291;-88
2022/11/03 08:06:48;;;;;;;7.60;2.38;;;;;;;13.69;68.37;100810.69;4774955;30;20041;-89
2022/11/03 08:09:14;;;;;;;5.85;2.35;;;;;;;13.84;67.44;100830.25;4781553;29;20492;-90
2022/11/03 08:11:40;;;;;;;11.75;2.35;;;;;;;13.75;67.75;100802.38;4787331;29;20034;-89
2022/11/03 08:14:05;;;;;;;8.85;2.40;;;;;;;13.82;67.45;100800.25;4786782;29;20031;-88
2022/11/03 08:16:30;;;;;;;8.68;2.28;;;;;;;13.84;67.22;100790.38;4781503;29;20056;-88
2022/11/03 08:18:56;;;;;;;4.80;2.15;;;;;;;13.87;67.42;100798.22;4768343;30;20493;-89
2022/11/03 08:21:21;;;;;;;10.35;2.38;;;;;;;13.93;67.41;100788.09;4798514;29;20083;-89
2022/11/03 08:23:46;;;;;;;10.63;2.28;;;;;;;14.06;66.82;100790.94;4789557;29;20035;-89
2022/11/03 08:26:12;;;;;;;5.22;2.10;;;;;;;14.13;66.46;100784.34;4801238;29;20118;-89
2022/11/03 08:28:37;;;;;;;7.68;1.70;;;;;;;14.11;66.25;100774.72;4798393;29;20114;-89
2022/11/03 08:31:05;;;;;;;6.35;2.67;;;;;;;14.06;66.76;100748.41;4785440;29;20074;-89
2022/11/03 08:33:31;;;;;;;6.38;2.35;;;;;;;14.21;66.07;100768.78;4806040;29;20483;-89
2022/11/03 08:35:57;;;;;;;9.00;2.05;;;;;;;14.20;66.15;100756.44;4793461;29;20027;-89
2022/11/03 08:38:22;;;;;;;9.27;2.13;;;;;;;14.20;66.58;100751.13;4783080;29;20530;-90
2022/11/03 08:40:47;;;;;;;6.82;1.88;;;;;;;14.17;66.10;100735.34;4799821;29;20035;-89
2022/11/03 08:43:13;;;;;;;7.18;2.00;;;;;;;14.17;66.05;100723.84;4778471;30;20039;-88
2022/11/03 08:45:38;;;;;;;9.48;2.05;;;;;;;14.16;66.16;100709.72;4799523;29;20035;-88
2022/11/03 08:48:04;;;;;;;5.50;2.10;;;;;;;14.27;66.34;100717.94;4794689;29;20038;-89
2022/11/03 08:50:29;;;;;;;7.13;2.85;;;;;;;14.21;65.89;100697.00;4793361;29;20038;-89
2022/11/03 08:52:54;;;;;;;6.43;1.55;;;;;;;14.40;65.67;100703.91;4805561;29;20480;-90
2022/11/03 08:55:20;;;;;;;6.38;2.00;;;;;;;14.47;65.71;100703.47;4804941;29;20037;-88
2022/11/03 08:57:46;;;;;;;9.38;1.98;;;;;;;14.47;65.56;100692.00;4800510;29;20039;-90
2022/11/03 09:00:12;;;;;;;6.72;1.98;;;;;;;14.60;64.55;100697.50;4775647;29;20123;-90
2022/11/03 09:02:37;;;;;;;10.25;2.35;;;;;;;14.48;64.57;100677.78;4782010;29;20042;-88
2022/11/03 09:05:04;;;;;;;9.23;2.13;;;;;;;14.65;64.92;100669.66;4800832;29;20035;-89
2022/11/03 09:07:30;;;;;;;6.90;2.15;;;;;;;14.69;64.46;100671.19;4797652;29;20083;-89
2022/11/03 09:09:55;;;;;;;6.53;1.45;;;;;;;14.92;63.93;100671.56;4791816;29;20035;-88
2022/11/03 09:12:20;;;;;;;10.02;2.55;;;;;;;14.94;63.57;100635.94;4788532;29;20038;-89
2022/11/03 09:14:46;;;;;;;7.20;1.98;;;;;;;15.15;62.59;100632.88;4792649;29;20434;-88
2022/11/03 09:17:11;;;;;;;4.05;1.42;;;;;;;15.48;61.77;100640.56;4779000;29;20032;-89
2022/11/03 09:19:36;;;;;;;8.52;1.92;;;;;;;15.49;61.68;100618.31;4786366;29;20063;-88
2022/11/03 09:22:02;;;;;;;11.00;2.33;;;;;;;15.52;61.50;100631.41;4785348;29;20705;-88
2022/11/03 09:24:27;;;;;;;10.18;2.13;;;;;;;15.55;61.40;100632.06;4801447;29;20041;-88
2022/11/03 09:26:52;;;;;;;7.50;1.95;;;;;;;15.51;61.90;100603.91;4780057;29;20023;-88
2022/11/03 09:29:17;;;;;;;8.50;2.13;;;;;;;15.47;61.52;100605.06;4781147;29;20049;-89
2022/11/03 09:31:43;;;;;;;7.60;2.00;;;;;;;15.41;61.72;100580.63;4804037;29;20510;-88
2022/11/03 09:34:08;;;;;;;10.38;2.55;;;;;;;15.32;62.94;100584.75;4792715;29;20092;-88
2022/11/03 09:36:33;;;;;;;8.95;1.80;;;;;;;15.22;62.63;100580.97;4778898;30;20116;-89
2022/11/03 09:38:59;;;;;;;5.40;2.00;;;;;;;15.09;62.99;100572.03;4777947;29;20040;-88
2022/11/03 09:41:24;;;;;;;6.43;1.83;;;;;;;15.16;62.07;100568.03;4798330;29;20487;-89
2022/11/03 09:43:49;;;;;;;8.85;1.90;;;;;;;15.18;62.65;100582.97;4804345;29;20039;-88
2022/11/03 09:46:16;;;;;;;11.75;1.80;;;;;;;14.96;62.80;100548.00;4788105;29;20556;-88
2022/11/03 09:48:41;;;;;;;8.10;2.00;;;;;;;15.03;62.16;100568.81;4792034;29;20377;-89
2022/11/03 09:51:12;;;;;;;8.15;2.17;;;;;;;14.99;62.36;100559.31;4798109;29;20023;-88
2022/11/03 09:53:38;;;;;;;8.43;1.95;;;;;;;14.92;63.49;100541.13;4786249;29;20506;-88
2022/11/03 09:56:04;;;;;;;6.75;2.17;;;;;;;14.98;63.13;100557.59;4794376;29;20031;-88
2022/11/03 09:58:32;;;;;;;9.98;2.10;;;;;;;14.87;63.11;100543.25;4772346;29;20038;-88
2022/11/03 10:00:59;;;;;;;9.25;2.55;;;;;;;14.87;62.35;100540.56;4778413;29;20069;-88
2022/11/03 10:03:24;;;;;;;3.72;1.52;;;;;;;14.96;62.54;100537.34;4792345;29;20122;-88
2022/11/03 10:05:50;;;;;;;9.40;2.65;;;;;;;14.82;62.58;100521.38;4793918;29;20111;-89
2022/11/03 10:08:32;;;;;;;7.45;1.80;;;;;;;14.93;62.82;100529.56;4772983;29;20506;-88
2022/11/03 10:10:59;;;;;;;;;;;;;;;15.04;62.63;100535.06;4780884;29;20392;-90
2022/11/03 10:13:33;;;;;;;9.48;2.03;;;;;;;14.92;62.69;100534.03;4781837;29;20485;-89
2022/11/03 10:16:05;;;;;;;8.60;2.10;;;;;;;14.86;62.87;100525.56;4781961;29;20114;-89
2022/11/03 10:18:32;;;;;;;9.32;2.42;;;;;;;14.79;62.32;100498.50;4777582;29;20061;-89
2022/11/03 10:21:03;;;;;;;7.13;1.73;;;;;;;14.82;63.02;100505.41;4797610;29;20061;-88
2022/11/03 10:23:28;;;;;;;7.57;1.90;;;;;;;14.80;63.30;100498.38;4769865;30;20027;-89
2022/11/03 10:26:07;;;;;;;6.65;1.67;;;;;;;14.92;62.84;100519.84;4772299;29;20490;-89
2022/11/03 10:28:32;;;;;;;7.65;2.15;;;;;;;14.82;62.94;100492.97;4803889;29;20046;-89
2022/11/03 10:31:07;;;;;;;5.88;2.05;;;;;;;14.78;62.92;100492.31;4799584;29;20085;-89
2022/11/03 10:33:37;;;;;;;6.32;2.03;;;;;;;14.90;62.52;100506.66;4797310;29;20498;-89
2022/11/03 10:36:19;;;;;;;7.35;2.03;;;;;;;14.95;62.64;100493.91;4786264;29;20039;-89
2022/11/03 10:38:46;;;;;;;5.70;1.73;;;;;;;15.01;62.16;100484.66;4773665;29;20110;-88
2022/11/03 10:41:24;;;;;;;5.38;2.10;;;;;;;15.02;62.46;100484.56;4796714;29;20083;-88
2022/11/03 10:44:04;;;;;;;5.78;1.50;;;;;;;15.10;62.22;100473.41;4788222;29;20080;-90
2022/11/03 10:46:32;;;;;;;3.42;1.40;;;;;;;15.04;62.19;100456.03;4781282;29;20027;-89
2022/11/03 10:49:00;;;;;;;6.40;1.65;;;;;;;15.23;61.72;100462.81;4781359;29;20031;-88
2022/11/03 10:51:25;;;;;;;8.98;2.00;;;;;;;15.25;61.33;100437.81;4796954;29;20407;-88
2022/11/03 10:53:50;;;;;;;5.15;1.90;;;;;;;15.37;60.45;100449.44;4781553;29;20031;-88
2022/11/03 10:56:16;;;;;;;6.65;1.65;;;;;;;15.48;60.85;100462.03;4784744;29;20035;-88
2022/11/03 10:58:41;;;;;;;7.50;2.03;;;;;;;15.53;60.24;100460.81;4802567;29;20030;-88
2022/11/03 11:01:09;;;;;;;6.47;1.55;;;;;;;15.58;60.93;100457.84;4797989;29;20447;-89
2022/11/03 11:03:41;;;;;;;8.02;2.00;;;;;;;15.57;60.60;100442.78;4797624;29;20045;-88
2022/11/03 11:06:17;;;;;;;6.97;2.08;;;;;;;15.59;60.26;100443.56;4781402;29;20091;-89
2022/11/03 11:08:42;;;;;;;7.72;1.75;;;;;;;15.55;59.98;100432.25;4787054;29;20038;-88
2022/11/03 11:11:08;;;;;;;5.45;1.80;;;;;;;15.70;59.65;100419.72;4792736;29;20035;-89
2022/11/03 11:13:33;;;;;;;5.57;2.00;;;;;;;15.85;58.42;100435.63;4803704;29;20039;-89
2022/11/03 11:16:00;;;;;;;6.03;1.98;;;;;;;15.81;59.16;100443.00;4791404;29;20042;-88
2022/11/03 11:18:28;;;;;;;6.47;2.38;;;;;;;15.92;58.28;100443.09;4795230;29;20117;-90
2022/11/03 11:21:16;;;;;;;5.78;1.90;;;;;;;15.97;58.57;100429.44;4785665;29;20059;-88
2022/11/03 11:23:44;;;;;;;4.50;1.77;;;;;;;15.90;58.24;100421.03;4782789;29;20034;-88
2022/11/03 11:26:09;;;;;;;4.28;1.45;;;;;;;16.00;58.38;100426.59;4789729;29;20088;-89
2022/11/03 11:28:35;;;;;;;6.37;1.40;;;;;;;16.03;57.77;100421.84;4794106;29;20431;-88
2022/11/03 11:31:00;;;;;;;4.32;1.85;;;;;;;16.06;57.42;100402.13;4806011;29;20661;-88
2022/11/03 11:33:28;;;;;;;7.70;1.90;;;;;;;15.86;57.69;100397.34;4795865;29;20062;-89
2022/11/03 11:35:53;;;;;;;9.32;3.45;;;;;;;16.02;57.49;100390.84;4800719;29;20197;-88
2022/11/03 11:38:47;;;;;;;5.70;1.87;;;;;;;16.01;58.29;100393.63;4778084;29;20042;-89
2022/11/03 11:41:12;;;;;;;6.93;1.95;;;;;;;16.04;57.35;100375.59;4787530;29;20281;-88
2022/11/03 11:43:37;;;;;;;4.35;1.90;;;;;;;16.03;57.83;100367.69;4784423;29;20123;-89
2022/11/03 11:46:21;;;;;;;5.70;1.50;;;;;;;16.06;57.61;100363.00;4796999;29;20484;-88
2022/11/03 11:48:55;;;;;;;5.57;1.55;;;;;;;16.05;57.19;100361.28;4773478;30;20043;-89
2022/11/03 11:51:20;;;;;;;4.75;1.90;;;;;;;15.95;57.71;100343.41;4775984;29;20031;-89